createdAt,value
2023-03-10T00:01:23.807Z,4.60
2023-03-10T00:03:53.492Z,4.30
2023-03-10T00:06:24.609Z,4.50
2023-03-10T00:08:54.619Z,4.10
2023-03-10T00:11:23.534Z,4.00
2023-03-10T00:13:52.099Z,4.10
2023-03-10T00:16:23.889Z,4.10
2023-03-10T00:18:53.289Z,4.10
2023-03-10T00:21:25.319Z,4.00
2023-03-10T00:23:54.947Z,4.10
2023-03-10T00:26:24.667Z,4.10
2023-03-10T00:28:53.288Z,4.00
2023-03-10T00:31:27.078Z,3.80
2023-03-10T00:33:57.355Z,4.30
2023-03-10T00:36:30.774Z,4.10
2023-03-10T00:39:05.689Z,4.10
2023-03-10T00:41:42.927Z,4.10
2023-03-10T00:44:11.418Z,4.10
2023-03-10T00:46:39.920Z,4.10
2023-03-10T00:49:09.748Z,4.10
2023-03-10T00:51:38.149Z,4.10
2023-03-10T00:54:06.590Z,4.00
2023-03-10T00:56:35.120Z,4.10
2023-03-10T00:59:03.617Z,4.30
2023-03-10T01:01:38.320Z,4.30
2023-03-10T01:04:09.851Z,4.30
2023-03-10T01:06:38.311Z,4.20
2023-03-10T01:09:07.890Z,4.10
2023-03-10T01:11:37.782Z,4.30
2023-03-10T01:14:09.006Z,4.20
2023-03-10T01:16:37.431Z,4.40
2023-03-10T01:19:06.065Z,4.40
2023-03-10T01:21:37.823Z,4.30
2023-03-10T01:24:06.941Z,4.30
2023-03-10T01:26:35.737Z,4.40
2023-03-10T01:29:04.822Z,4.30
2023-03-10T01:31:33.524Z,4.30
2023-03-10T01:34:01.991Z,4.50
2023-03-10T01:36:30.892Z,4.60
2023-03-10T01:38:59.525Z,4.30
2023-03-10T01:41:28.212Z,4.40
2023-03-10T01:43:58.621Z,4.60
2023-03-10T01:46:37.415Z,4.30
2023-03-10T01:49:20.709Z,4.40
2023-03-10T01:52:34.698Z,4.40
2023-03-10T01:55:24.961Z,4.40
2023-03-10T01:57:58.499Z,4.30
2023-03-10T02:00:30.294Z,4.40
2023-03-10T02:03:08.696Z,4.80
2023-03-10T02:05:51.296Z,4.40
2023-03-10T02:08:21.594Z,4.30
2023-03-10T02:10:51.587Z,4.70
2023-03-10T02:13:20.071Z,4.60
2023-03-10T02:15:48.734Z,4.80
2023-03-10T02:18:18.653Z,4.80
2023-03-10T02:21:31.543Z,4.40
2023-03-10T02:24:05.995Z,4.70
2023-03-10T02:27:25.687Z,4.60
2023-03-10T02:30:20.348Z,4.70
2023-03-10T02:32:54.817Z,4.70
2023-03-10T02:35:24.024Z,4.60
2023-03-10T02:37:52.509Z,4.90
2023-03-10T02:40:41.327Z,4.60
2023-03-10T02:43:27.726Z,4.70
2023-03-10T02:46:02.875Z,4.60
2023-03-10T02:48:34.336Z,4.70
2023-03-10T02:51:07.247Z,4.60
2023-03-10T02:53:35.639Z,4.60
2023-03-10T02:56:04.204Z,4.60
2023-03-10T02:58:34.327Z,4.60
2023-03-10T03:01:03.411Z,4.60
2023-03-10T03:03:32.073Z,4.50
2023-03-10T03:06:00.834Z,4.70
2023-03-10T03:08:29.801Z,4.40
2023-03-10T03:10:58.367Z,4.60
2023-03-10T03:13:27.201Z,4.40
2023-03-10T03:15:55.617Z,4.70
2023-03-10T03:18:24.130Z,4.70
2023-03-10T03:20:52.594Z,4.30
2023-03-10T03:23:21.630Z,4.80
2023-03-10T03:25:50.143Z,4.80
2023-03-10T03:28:18.553Z,4.60
2023-03-10T03:30:47.658Z,4.60
2023-03-10T03:33:16.063Z,4.70
2023-03-10T03:35:45.190Z,4.70
2023-03-10T03:38:14.250Z,4.60
2023-03-10T03:40:43.588Z,4.60
2023-03-10T03:43:14.599Z,4.70
2023-03-10T03:45:43.032Z,4.70
2023-03-10T03:48:13.751Z,4.70
2023-03-10T03:50:42.192Z,4.70
2023-03-10T03:53:10.627Z,4.60
2023-03-10T03:55:39.323Z,4.90
2023-03-10T03:58:07.855Z,4.60
2023-03-10T04:00:36.733Z,4.60
2023-03-10T04:03:05.157Z,4.70
2023-03-10T04:05:33.999Z,4.60
2023-03-10T04:08:02.550Z,4.90
2023-03-10T04:10:31.179Z,4.60
2023-03-10T04:12:59.890Z,4.60
2023-03-10T04:15:28.555Z,4.80
2023-03-10T04:17:58.885Z,4.60
2023-03-10T04:20:27.913Z,4.70
2023-03-10T04:22:56.584Z,4.60
2023-03-10T04:25:24.994Z,4.60
2023-03-10T04:27:53.464Z,4.50
2023-03-10T04:30:22.023Z,4.50
2023-03-10T04:32:50.568Z,4.40
2023-03-10T04:35:19.066Z,4.40
2023-03-10T04:37:47.508Z,4.50
2023-03-10T04:40:16.243Z,4.40
2023-03-10T04:42:44.716Z,4.70
2023-03-10T04:45:13.862Z,4.50
2023-03-10T04:47:42.425Z,4.40
2023-03-10T04:50:13.363Z,4.60
2023-03-10T04:52:41.781Z,4.60
2023-03-10T04:55:10.701Z,4.50
2023-03-10T04:57:39.167Z,4.50
2023-03-10T05:00:09.252Z,4.70
2023-03-10T05:02:38.431Z,4.60
2023-03-10T05:05:07.961Z,4.60
2023-03-10T05:07:36.392Z,4.50
2023-03-10T05:10:05.724Z,4.60
2023-03-10T05:12:34.170Z,4.70
2023-03-10T05:15:03.008Z,4.60
2023-03-10T05:17:31.759Z,4.40
2023-03-10T05:20:00.307Z,4.50
2023-03-10T05:22:28.935Z,4.70
2023-03-10T05:24:57.402Z,4.60
2023-03-10T05:27:25.870Z,4.50
2023-03-10T05:29:54.273Z,4.60
2023-03-10T05:32:26.357Z,4.60
2023-03-10T05:34:54.765Z,4.70
2023-03-10T05:37:23.268Z,4.50
2023-03-10T05:39:51.740Z,4.60
2023-03-10T05:42:20.343Z,4.60
2023-03-10T05:44:48.743Z,4.60
2023-03-10T05:47:19.944Z,4.80
2023-03-10T05:49:48.349Z,4.70
2023-03-10T05:52:17.116Z,4.60
2023-03-10T05:54:45.666Z,4.60
2023-03-10T05:57:14.189Z,4.70
2023-03-10T05:59:42.656Z,4.60
2023-03-10T06:02:11.330Z,4.50
2023-03-10T06:04:39.911Z,4.90
2023-03-10T06:07:08.307Z,4.60
2023-03-10T06:09:36.750Z,4.40
2023-03-10T06:12:05.668Z,4.60
2023-03-10T06:14:34.169Z,4.40
2023-03-10T06:17:02.601Z,4.40
2023-03-10T06:19:31.639Z,4.40
2023-03-10T06:22:00.285Z,4.40
2023-03-10T06:24:30.083Z,4.30
2023-03-10T06:26:58.499Z,4.40
2023-03-10T06:29:26.920Z,4.40
2023-03-10T06:31:55.414Z,4.40
2023-03-10T06:34:23.832Z,4.40
2023-03-10T06:36:52.249Z,4.40
2023-03-10T06:39:20.712Z,4.30
2023-03-10T06:41:49.718Z,4.80
2023-03-10T06:44:19.501Z,4.50
2023-03-10T06:46:48.626Z,4.40
2023-03-10T06:49:17.066Z,4.60
2023-03-10T06:51:45.480Z,4.60
2023-03-10T06:54:14.036Z,4.60
2023-03-10T06:56:42.423Z,4.50
2023-03-10T06:59:10.818Z,4.50
2023-03-10T07:01:40.039Z,4.60
2023-03-10T07:04:09.103Z,4.50
2023-03-10T07:06:37.576Z,4.60
2023-03-10T07:09:06.660Z,4.80
2023-03-10T07:11:35.121Z,4.40
2023-03-10T07:14:03.805Z,4.30
2023-03-10T07:16:32.345Z,4.40
2023-03-10T07:19:00.796Z,4.40
2023-03-10T07:21:29.440Z,4.40
2023-03-10T07:23:57.864Z,4.40
2023-03-10T07:26:26.526Z,4.50
2023-03-10T07:28:55.199Z,4.60
2023-03-10T07:31:23.853Z,4.60
2023-03-10T07:33:52.270Z,4.30
2023-03-10T07:36:21.712Z,4.50
2023-03-10T07:38:50.233Z,4.40
2023-03-10T07:41:20.752Z,4.60
2023-03-10T07:43:52.859Z,4.80
2023-03-10T07:46:21.756Z,4.50
2023-03-10T07:48:50.613Z,4.70
2023-03-10T07:51:19.189Z,4.60
2023-03-10T07:53:47.670Z,4.70
2023-03-10T07:56:17.143Z,4.80
2023-03-10T07:58:45.574Z,4.60
2023-03-10T08:01:23.289Z,4.80
2023-03-10T08:03:51.913Z,4.80
2023-03-10T08:06:22.860Z,4.70
2023-03-10T08:08:52.067Z,4.60
2023-03-10T08:11:21.470Z,4.60
2023-03-10T08:13:50.408Z,4.60
2023-03-10T08:16:21.566Z,4.70
2023-03-10T08:18:52.972Z,4.60
2023-03-10T08:21:21.963Z,4.90
2023-03-10T08:23:50.863Z,4.70
2023-03-10T08:26:20.149Z,4.70
2023-03-10T08:28:49.337Z,4.70
2023-03-10T08:31:20.449Z,4.70
2023-03-10T08:33:49.764Z,4.60
2023-03-10T08:36:23.291Z,4.60
2023-03-10T08:38:53.830Z,4.90
2023-03-10T08:41:25.640Z,5.00
2023-03-10T08:43:56.306Z,4.90
2023-03-10T08:46:26.563Z,4.90
2023-03-10T08:48:55.801Z,4.90
2023-03-10T08:51:25.006Z,5.00
2023-03-10T08:53:54.510Z,4.90
2023-03-10T08:56:24.751Z,5.00
2023-03-10T08:59:01.439Z,5.00
2023-03-10T09:01:34.039Z,5.00
2023-03-10T09:04:04.749Z,5.30
2023-03-10T09:06:33.858Z,5.20
2023-03-10T09:09:03.173Z,5.30
2023-03-10T09:11:36.982Z,5.20
2023-03-10T09:14:07.685Z,5.30
2023-03-10T09:16:36.373Z,5.30
2023-03-10T09:19:05.373Z,5.30
2023-03-10T09:21:34.281Z,5.30
2023-03-10T09:24:03.799Z,5.80
2023-03-10T09:26:32.613Z,5.90
2023-03-10T09:29:01.156Z,5.80
2023-03-10T09:31:38.574Z,5.60
2023-03-10T09:34:09.008Z,5.60
2023-03-10T09:36:37.545Z,5.80
2023-03-10T09:39:06.360Z,5.70
2023-03-10T09:42:09.077Z,5.80
2023-03-10T09:44:47.299Z,5.60
2023-03-10T09:47:20.127Z,5.60
2023-03-10T09:50:13.824Z,5.90
2023-03-10T09:52:50.030Z,5.60
2023-03-10T09:55:24.788Z,5.50
2023-03-10T09:57:56.390Z,5.50
2023-03-10T10:00:38.539Z,5.30
2023-03-10T10:03:23.390Z,5.30
2023-03-10T10:05:56.074Z,5.30
2023-03-10T10:08:28.658Z,5.30
2023-03-10T10:11:00.582Z,5.50
2023-03-10T10:13:31.315Z,5.00
2023-03-10T10:16:34.695Z,5.00
2023-03-10T10:19:29.784Z,4.90
2023-03-10T10:22:10.331Z,4.90
2023-03-10T10:24:39.429Z,4.70
2023-03-10T10:27:08.194Z,4.90
2023-03-10T10:29:39.131Z,4.70
2023-03-10T10:32:16.718Z,4.80
2023-03-10T10:34:50.700Z,4.90
2023-03-10T10:37:45.385Z,4.70
2023-03-10T10:40:26.934Z,4.70
2023-03-10T10:43:06.771Z,4.70
2023-03-10T10:45:40.599Z,4.70
2023-03-10T10:48:49.030Z,4.70
2023-03-10T10:51:33.218Z,5.00
2023-03-10T10:54:20.401Z,4.60
2023-03-10T10:56:57.790Z,4.80
2023-03-10T10:59:34.436Z,5.10
2023-03-10T11:02:25.355Z,4.90
2023-03-10T11:04:53.798Z,5.00
2023-03-10T11:07:29.580Z,4.90
2023-03-10T11:09:58.960Z,5.00
2023-03-10T11:12:54.377Z,5.00
2023-03-10T11:15:34.291Z,5.00
2023-03-10T11:18:09.781Z,4.90
2023-03-10T11:20:53.588Z,4.90
2023-03-10T11:23:35.307Z,4.70
2023-03-10T11:26:17.848Z,4.70
2023-03-10T11:29:06.272Z,4.90
2023-03-10T11:31:51.472Z,4.70
2023-03-10T11:34:22.651Z,4.70
2023-03-10T11:37:09.733Z,4.60
2023-03-10T11:39:41.539Z,4.60
2023-03-10T11:42:12.894Z,4.60
2023-03-10T11:45:24.519Z,4.90
2023-03-10T11:48:04.267Z,4.70
2023-03-10T11:50:51.741Z,4.30
2023-03-10T11:53:41.926Z,4.40
2023-03-10T11:56:15.512Z,4.40
2023-03-10T11:59:06.826Z,4.30
2023-03-10T12:01:41.874Z,4.40
2023-03-10T12:04:41.742Z,4.10
2023-03-10T12:07:46.715Z,4.10
2023-03-10T12:10:17.256Z,4.10
2023-03-10T12:12:50.849Z,4.10
2023-03-10T12:15:39.519Z,4.10
2023-03-10T12:18:09.232Z,4.40
2023-03-10T12:20:38.018Z,4.30
2023-03-10T12:23:12.686Z,4.60
2023-03-10T12:25:43.510Z,4.40
2023-03-10T12:28:17.622Z,4.30
2023-03-10T12:30:51.796Z,4.40
2023-03-10T12:33:32.208Z,4.40
2023-03-10T12:36:10.300Z,4.40
2023-03-10T12:38:47.182Z,4.50
2023-03-10T12:41:51.545Z,4.60
2023-03-10T12:44:35.849Z,4.40
2023-03-10T12:47:10.616Z,4.30
2023-03-10T12:49:42.134Z,4.40
2023-03-10T12:52:41.315Z,4.40
2023-03-10T12:55:23.189Z,4.40
2023-03-10T12:57:56.997Z,4.30
2023-03-10T13:00:51.968Z,4.30
2023-03-10T13:03:32.604Z,4.30
2023-03-10T13:06:08.879Z,4.30
2023-03-10T13:08:45.136Z,4.30
2023-03-10T13:11:49.626Z,4.20
2023-03-10T13:14:23.501Z,4.00
2023-03-10T13:17:03.869Z,4.10
2023-03-10T13:19:35.154Z,4.10
2023-03-10T13:22:08.609Z,4.10
2023-03-10T13:24:39.869Z,4.00
2023-03-10T13:27:14.420Z,4.00
2023-03-10T13:29:57.089Z,4.10
2023-03-10T13:32:26.219Z,4.10
2023-03-10T13:34:54.688Z,3.80
2023-03-10T13:37:23.334Z,3.70
2023-03-10T13:39:52.048Z,3.80
2023-03-10T13:42:42.866Z,3.40
2023-03-10T13:45:23.648Z,3.70
2023-03-10T13:47:53.447Z,3.50
2023-03-10T13:50:22.723Z,3.80
2023-03-10T13:52:58.069Z,3.60
2023-03-10T13:55:28.698Z,3.90
2023-03-10T13:57:58.837Z,3.90
2023-03-10T14:00:28.459Z,3.80
2023-03-10T14:02:57.315Z,4.30
2023-03-10T14:05:46.621Z,3.90
2023-03-10T14:08:31.691Z,4.10
2023-03-10T14:11:35.636Z,3.80
2023-03-10T14:14:08.830Z,4.20
2023-03-10T14:16:47.242Z,4.10
2023-03-10T14:19:35.790Z,4.00
2023-03-10T14:22:04.330Z,4.10
2023-03-10T14:24:32.944Z,4.10
2023-03-10T14:27:01.674Z,4.00
2023-03-10T14:29:31.629Z,4.20
2023-03-10T14:32:00.828Z,4.40
2023-03-10T14:34:29.659Z,4.30
2023-03-10T14:36:58.090Z,4.30
2023-03-10T14:39:26.462Z,4.40
2023-03-10T14:41:54.916Z,4.30
2023-03-10T14:44:23.407Z,4.40
2023-03-10T14:46:53.831Z,4.50
2023-03-10T14:49:27.340Z,4.40
2023-03-10T14:51:55.921Z,4.40
2023-03-10T14:54:26.772Z,4.40
2023-03-10T14:57:02.604Z,4.10
2023-03-10T14:59:31.115Z,4.10
2023-03-10T15:02:03.498Z,4.10
2023-03-10T15:04:31.951Z,4.30
2023-03-10T15:07:00.400Z,4.20
2023-03-10T15:09:28.840Z,4.30
2023-03-10T15:11:58.143Z,4.10
2023-03-10T15:14:26.650Z,4.30
2023-03-10T15:16:56.316Z,4.00
2023-03-10T15:19:27.344Z,4.40
2023-03-10T15:21:56.928Z,4.30
2023-03-10T15:24:25.434Z,4.50
2023-03-10T15:26:53.851Z,4.40
2023-03-10T15:29:24.303Z,4.30
2023-03-10T15:31:52.880Z,4.60
2023-03-10T15:34:21.543Z,4.40
2023-03-10T15:36:50.010Z,4.40
2023-03-10T15:39:30.635Z,4.40
2023-03-10T15:41:59.829Z,4.60
2023-03-10T15:44:28.244Z,4.60
2023-03-10T15:46:56.832Z,4.60
2023-03-10T15:49:25.348Z,4.70
2023-03-10T15:51:53.789Z,4.70
2023-03-10T15:54:22.225Z,4.70
2023-03-10T15:56:50.726Z,4.90
2023-03-10T15:59:19.536Z,5.20
2023-03-10T16:01:48.125Z,4.90
2023-03-10T16:04:17.181Z,4.60
2023-03-10T16:06:45.802Z,4.30
2023-03-10T16:09:14.191Z,4.30
2023-03-10T16:11:42.807Z,4.40
2023-03-10T16:14:11.492Z,4.50
2023-03-10T16:16:40.158Z,4.60
2023-03-10T16:19:08.724Z,4.60
2023-03-10T16:21:37.493Z,4.70
2023-03-10T16:24:06.051Z,4.70
2023-03-10T16:26:34.795Z,5.00
2023-03-10T16:29:03.200Z,4.60
2023-03-10T16:31:31.711Z,4.90
2023-03-10T16:34:00.255Z,5.00
2023-03-10T16:36:30.737Z,5.00
2023-03-10T16:38:59.310Z,5.00
2023-03-10T16:41:29.704Z,5.20
2023-03-10T16:43:58.404Z,5.30
2023-03-10T16:46:30.958Z,5.20
2023-03-10T16:49:01.118Z,5.20
2023-03-10T16:51:36.132Z,5.40
2023-03-10T16:54:07.096Z,5.40
2023-03-10T16:56:42.152Z,5.30
2023-03-10T16:59:16.958Z,5.40
2023-03-10T17:01:46.992Z,5.30
2023-03-10T17:04:15.756Z,5.90
2023-03-10T17:06:44.890Z,5.60
2023-03-10T17:09:15.099Z,5.90
2023-03-10T17:11:55.142Z,6.00
2023-03-10T17:14:24.829Z,6.20
2023-03-10T17:17:00.372Z,6.00
2023-03-10T17:19:31.722Z,6.10
2023-03-10T17:22:00.541Z,6.20
2023-03-10T17:24:29.060Z,5.90
2023-03-10T17:26:57.539Z,6.20
2023-03-10T17:29:25.998Z,6.20
2023-03-10T17:31:54.514Z,5.90
2023-03-10T17:34:23.854Z,5.80
2023-03-10T17:36:52.486Z,5.80
2023-03-10T17:39:23.170Z,6.10
2023-03-10T17:41:51.726Z,6.20
2023-03-10T17:44:20.141Z,6.50
2023-03-10T17:46:48.848Z,6.30
2023-03-10T17:49:18.884Z,6.40
2023-03-10T17:51:48.120Z,6.50
2023-03-10T17:54:21.767Z,6.60
2023-03-10T17:56:50.960Z,6.70
2023-03-10T17:59:19.792Z,6.60
2023-03-10T18:01:50.135Z,6.60
2023-03-10T18:04:18.633Z,6.70
2023-03-10T18:06:47.281Z,6.60
2023-03-10T18:09:16.399Z,6.40
2023-03-10T18:11:44.940Z,6.60
2023-03-10T18:14:13.346Z,6.60
2023-03-10T18:16:42.381Z,6.80
2023-03-10T18:19:11.990Z,6.60
2023-03-10T18:21:41.403Z,6.60
2023-03-10T18:24:12.307Z,6.80
2023-03-10T18:26:44.133Z,7.20
2023-03-10T18:29:13.983Z,7.30
2023-03-10T18:31:42.532Z,7.60
2023-03-10T18:34:11.107Z,7.90
2023-03-10T18:36:40.181Z,8.00
2023-03-10T18:39:08.778Z,8.30
2023-03-10T18:41:37.177Z,8.30
2023-03-10T18:44:06.547Z,8.40
2023-03-10T18:46:35.042Z,8.60
2023-03-10T18:49:03.537Z,8.10
2023-03-10T18:51:32.102Z,8.20
2023-03-10T18:54:00.508Z,8.40
2023-03-10T18:56:30.116Z,8.10
2023-03-10T18:58:58.591Z,8.20
2023-03-10T19:01:27.727Z,8.10
2023-03-10T19:03:56.295Z,7.50
2023-03-10T19:06:29.904Z,7.40
2023-03-10T19:08:58.314Z,7.50
2023-03-10T19:11:28.527Z,7.50
2023-03-10T19:13:57.060Z,7.60
2023-03-10T19:16:25.853Z,7.50
2023-03-10T19:18:54.923Z,7.50
2023-03-10T19:21:23.457Z,7.50
2023-03-10T19:23:52.439Z,7.50
2023-03-10T19:26:20.932Z,7.40
2023-03-10T19:28:49.484Z,7.40
2023-03-10T19:31:18.046Z,7.40
2023-03-10T19:33:46.815Z,7.80
2023-03-10T19:36:16.155Z,8.00
2023-03-10T19:38:45.803Z,7.50
2023-03-10T19:41:18.057Z,7.40
2023-03-10T19:43:50.415Z,7.20
2023-03-10T19:46:20.185Z,7.20
2023-03-10T19:48:49.068Z,7.40
2023-03-10T19:51:26.400Z,7.50
2023-03-10T19:53:57.182Z,7.90
2023-03-10T19:56:28.796Z,8.20
2023-03-10T19:58:57.446Z,8.10
2023-03-10T20:01:28.113Z,8.00
2023-03-10T20:04:03.496Z,8.20
2023-03-10T20:06:32.292Z,8.30
2023-03-10T20:09:00.690Z,8.40
2023-03-10T20:11:29.192Z,9.00
2023-03-10T20:13:57.818Z,9.90
2023-03-10T20:16:28.294Z,9.90
2023-03-10T20:18:57.071Z,10.50
2023-03-10T20:21:27.225Z,10.20
2023-03-10T20:23:56.403Z,9.70
2023-03-10T20:26:24.920Z,9.70
2023-03-10T20:28:53.448Z,10.10
2023-03-10T20:31:23.735Z,10.20
2023-03-10T20:33:52.992Z,10.20
2023-03-10T20:36:21.730Z,9.80
2023-03-10T20:38:50.768Z,9.90
2023-03-10T20:41:20.411Z,9.70
2023-03-10T20:43:49.060Z,9.20
2023-03-10T20:46:20.303Z,9.40
2023-03-10T20:48:51.883Z,9.30
2023-03-10T20:51:20.295Z,9.00
2023-03-10T20:53:48.906Z,9.20
2023-03-10T20:56:17.487Z,8.90
2023-03-10T20:58:45.946Z,9.30
2023-03-10T21:01:20.286Z,9.40
2023-03-10T21:03:48.801Z,8.70
2023-03-10T21:06:17.285Z,9.40
2023-03-10T21:08:45.819Z,9.60
2023-03-10T21:11:14.884Z,9.70
2023-03-10T21:13:44.351Z,8.90
2023-03-10T21:16:13.338Z,8.80
2023-03-10T21:18:41.826Z,9.00
2023-03-10T21:21:10.866Z,9.10
2023-03-10T21:23:40.870Z,9.30
2023-03-10T21:26:17.811Z,9.10
2023-03-10T21:28:46.463Z,8.90
2023-03-10T21:31:16.035Z,8.90
2023-03-10T21:33:44.900Z,9.20
2023-03-10T21:36:16.704Z,8.70
2023-03-10T21:38:47.734Z,8.70
2023-03-10T21:41:19.299Z,9.10
2023-03-10T21:43:47.769Z,9.20
2023-03-10T21:46:17.456Z,9.40
2023-03-10T21:48:45.994Z,9.30
2023-03-10T21:51:17.344Z,9.10
2023-03-10T21:53:46.942Z,9.40
2023-03-10T21:56:18.452Z,9.60
2023-03-10T21:58:47.952Z,9.70
2023-03-10T22:01:19.311Z,9.50
2023-03-10T22:03:47.894Z,9.70
2023-03-10T22:06:16.905Z,9.50
2023-03-10T22:08:45.767Z,9.70
2023-03-10T22:11:14.785Z,9.60
2023-03-10T22:13:43.546Z,9.70
2023-03-10T22:16:18.503Z,9.60
2023-03-10T22:18:47.220Z,9.80
2023-03-10T22:21:15.627Z,9.80
2023-03-10T22:23:44.999Z,9.90
2023-03-10T22:26:14.501Z,10.00
2023-03-10T22:28:43.100Z,9.90
2023-03-10T22:31:12.149Z,9.60
2023-03-10T22:33:40.612Z,9.90
2023-03-10T22:36:13.130Z,9.70
2023-03-10T22:38:41.551Z,9.60
2023-03-10T22:41:14.043Z,9.50
2023-03-10T22:43:43.232Z,9.30
2023-03-10T22:46:18.526Z,9.30
2023-03-10T22:48:47.142Z,9.30
2023-03-10T22:51:19.223Z,9.20
2023-03-10T22:53:50.771Z,9.30
2023-03-10T22:56:19.192Z,9.20
2023-03-10T22:58:47.615Z,9.20
2023-03-10T23:01:16.008Z,9.30
2023-03-10T23:03:44.524Z,9.70
2023-03-10T23:06:14.454Z,9.60
2023-03-10T23:08:44.714Z,9.50
2023-03-10T23:11:15.288Z,9.60
2023-03-10T23:13:44.109Z,9.30
2023-03-10T23:16:12.987Z,9.30
2023-03-10T23:18:42.182Z,9.30
2023-03-10T23:21:11.150Z,9.60
2023-03-10T23:23:44.547Z,10.10
2023-03-10T23:26:13.320Z,9.90
2023-03-10T23:28:41.820Z,10.10
2023-03-10T23:31:11.100Z,10.20
2023-03-10T23:33:40.613Z,10.10
2023-03-10T23:36:09.371Z,9.50
2023-03-10T23:38:37.865Z,9.40
2023-03-10T23:41:07.343Z,9.50
2023-03-10T23:43:36.742Z,9.30
2023-03-10T23:46:07.987Z,9.20
2023-03-10T23:48:36.786Z,8.90
2023-03-10T23:51:05.692Z,9.10
2023-03-10T23:53:34.463Z,9.00
2023-03-10T23:56:02.880Z,9.20
2023-03-10T23:58:31.345Z,9.60
